sensor_id;sensor_type;location;lat;lon;timestamp;temperature;humidity
52189;DHT22;38162;45.926;13.608;2023-04-29T00:00:43;13.30;83.70
52189;DHT22;38162;45.926;13.608;2023-04-29T00:03:09;13.30;83.50
52189;DHT22;38162;45.926;13.608;2023-04-29T00:05:34;13.20;83.40
52189;DHT22;38162;45.926;13.608;2023-04-29T00:08:00;13.20;83.80
52189;DHT22;38162;45.926;13.608;2023-04-29T00:10:26;13.20;84.30
52189;DHT22;38162;45.926;13.608;2023-04-29T00:12:52;13.20;84.70
52189;DHT22;38162;45.926;13.608;2023-04-29T00:15:18;13.10;85.10
52189;DHT22;38162;45.926;13.608;2023-04-29T00:17:44;13.10;85.20
52189;DHT22;38162;45.926;13.608;2023-04-29T00:20:10;13.10;85.50
52189;DHT22;38162;45.926;13.608;2023-04-29T00:22:37;13.10;85.80
52189;DHT22;38162;45.926;13.608;2023-04-29T00:25:03;13.00;86.30
52189;DHT22;38162;45.926;13.608;2023-04-29T00:27:29;13.00;86.40
52189;DHT22;38162;45.926;13.608;2023-04-29T00:29:55;13.00;86.90
52189;DHT22;38162;45.926;13.608;2023-04-29T00:32:21;12.90;87.30
52189;DHT22;38162;45.926;13.608;2023-04-29T00:34:47;12.90;87.40
52189;DHT22;38162;45.926;13.608;2023-04-29T00:37:13;12.90;87.50
52189;DHT22;38162;45.926;13.608;2023-04-29T00:39:39;12.90;88.20
52189;DHT22;38162;45.926;13.608;2023-04-29T00:42:04;12.90;88.10
52189;DHT22;38162;45.926;13.608;2023-04-29T00:44:31;12.80;88.50
52189;DHT22;38162;45.926;13.608;2023-04-29T00:46:56;12.80;88.90
52189;DHT22;38162;45.926;13.608;2023-04-29T00:49:23;12.80;89.10
52189;DHT22;38162;45.926;13.608;2023-04-29T00:51:50;12.80;89.30
52189;DHT22;38162;45.926;13.608;2023-04-29T00:54:16;12.70;89.60
52189;DHT22;38162;45.926;13.608;2023-04-29T00:56:44;12.70;88.60
52189;DHT22;38162;45.926;13.608;2023-04-29T00:59:10;12.70;88.60
52189;DHT22;38162;45.926;13.608;2023-04-29T01:01:37;12.80;88.80
52189;DHT22;38162;45.926;13.608;2023-04-29T01:04:04;12.70;88.50
52189;DHT22;38162;45.926;13.608;2023-04-29T01:06:39;12.80;88.10
52189;DHT22;38162;45.926;13.608;2023-04-29T01:12:14;12.80;87.70
52189;DHT22;38162;45.926;13.608;2023-04-29T01:14:52;12.80;87.90
52189;DHT22;38162;45.926;13.608;2023-04-29T01:17:22;12.80;88.20
52189;DHT22;38162;45.926;13.608;2023-04-29T01:19:55;12.70;88.10
52189;DHT22;38162;45.926;13.608;2023-04-29T01:22:21;12.70;87.90
52189;DHT22;38162;45.926;13.608;2023-04-29T01:24:48;12.80;87.50
52189;DHT22;38162;45.926;13.608;2023-04-29T01:33:19;12.80;86.60
52189;DHT22;38162;45.926;13.608;2023-04-29T01:39:06;12.80;85.90
52189;DHT22;38162;45.926;13.608;2023-04-29T01:44:07;12.70;87.20
52189;DHT22;38162;45.926;13.608;2023-04-29T01:46:36;12.80;86.90
52189;DHT22;38162;45.926;13.608;2023-04-29T01:49:02;12.70;86.50
52189;DHT22;38162;45.926;13.608;2023-04-29T01:51:28;12.70;86.40
52189;DHT22;38162;45.926;13.608;2023-04-29T01:53:54;12.70;86.60
52189;DHT22;38162;45.926;13.608;2023-04-29T01:56:20;12.70;87.40
52189;DHT22;38162;45.926;13.608;2023-04-29T01:58:45;12.70;87.70
52189;DHT22;38162;45.926;13.608;2023-04-29T02:01:11;12.60;87.10
52189;DHT22;38162;45.926;13.608;2023-04-29T02:03:37;12.60;86.70
52189;DHT22;38162;45.926;13.608;2023-04-29T02:06:03;12.60;88.10
52189;DHT22;38162;45.926;13.608;2023-04-29T02:08:31;12.60;88.00
52189;DHT22;38162;45.926;13.608;2023-04-29T02:10:58;12.50;87.90
52189;DHT22;38162;45.926;13.608;2023-04-29T02:13:25;12.60;87.10
52189;DHT22;38162;45.926;13.608;2023-04-29T02:15:51;12.60;87.50
52189;DHT22;38162;45.926;13.608;2023-04-29T02:18:17;12.50;88.90
52189;DHT22;38162;45.926;13.608;2023-04-29T02:20:42;12.50;89.00
52189;DHT22;38162;45.926;13.608;2023-04-29T02:23:09;12.50;89.40
52189;DHT22;38162;45.926;13.608;2023-04-29T02:25:35;12.50;89.90
52189;DHT22;38162;45.926;13.608;2023-04-29T02:28:00;12.50;90.10
52189;DHT22;38162;45.926;13.608;2023-04-29T02:30:26;12.50;90.00
52189;DHT22;38162;45.926;13.608;2023-04-29T02:32:52;12.40;89.50
52189;DHT22;38162;45.926;13.608;2023-04-29T02:35:18;12.50;89.80
52189;DHT22;38162;45.926;13.608;2023-04-29T02:37:44;12.50;89.60
52189;DHT22;38162;45.926;13.608;2023-04-29T02:40:11;12.40;89.80
52189;DHT22;38162;45.926;13.608;2023-04-29T02:42:37;12.50;90.00
52189;DHT22;38162;45.926;13.608;2023-04-29T02:45:03;12.50;89.60
52189;DHT22;38162;45.926;13.608;2023-04-29T02:47:29;12.50;89.20
52189;DHT22;38162;45.926;13.608;2023-04-29T02:49:54;12.50;88.90
52189;DHT22;38162;45.926;13.608;2023-04-29T02:52:20;12.50;88.60
52189;DHT22;38162;45.926;13.608;2023-04-29T02:54:46;12.50;88.00
52189;DHT22;38162;45.926;13.608;2023-04-29T02:57:11;12.60;88.10
52189;DHT22;38162;45.926;13.608;2023-04-29T02:59:37;12.50;87.80
52189;DHT22;38162;45.926;13.608;2023-04-29T03:02:03;12.40;88.00
52189;DHT22;38162;45.926;13.608;2023-04-29T03:04:28;12.40;88.40
52189;DHT22;38162;45.926;13.608;2023-04-29T03:06:55;12.40;88.90
52189;DHT22;38162;45.926;13.608;2023-04-29T03:09:21;12.40;89.00
52189;DHT22;38162;45.926;13.608;2023-04-29T03:11:48;12.40;89.00
52189;DHT22;38162;45.926;13.608;2023-04-29T03:14:14;12.30;89.80
52189;DHT22;38162;45.926;13.608;2023-04-29T03:16:40;12.30;90.10
52189;DHT22;38162;45.926;13.608;2023-04-29T03:19:05;12.30;90.20
52189;DHT22;38162;45.926;13.608;2023-04-29T03:21:31;12.20;90.20
52189;DHT22;38162;45.926;13.608;2023-04-29T03:23:58;12.20;90.50
52189;DHT22;38162;45.926;13.608;2023-04-29T03:26:23;12.20;90.50
52189;DHT22;38162;45.926;13.608;2023-04-29T03:28:50;12.20;90.60
52189;DHT22;38162;45.926;13.608;2023-04-29T03:31:16;12.20;90.50
52189;DHT22;38162;45.926;13.608;2023-04-29T03:33:42;12.10;90.70
52189;DHT22;38162;45.926;13.608;2023-04-29T03:36:08;12.20;90.70
52189;DHT22;38162;45.926;13.608;2023-04-29T03:38:34;12.10;90.70
52189;DHT22;38162;45.926;13.608;2023-04-29T03:41:00;12.10;90.70
52189;DHT22;38162;45.926;13.608;2023-04-29T03:43:26;12.10;90.60
52189;DHT22;38162;45.926;13.608;2023-04-29T03:45:52;12.20;90.70
52189;DHT22;38162;45.926;13.608;2023-04-29T03:48:18;12.20;90.40
52189;DHT22;38162;45.926;13.608;2023-04-29T03:50:47;12.20;90.40
52189;DHT22;38162;45.926;13.608;2023-04-29T03:53:12;12.20;90.50
52189;DHT22;38162;45.926;13.608;2023-04-29T03:55:39;12.20;90.80
52189;DHT22;38162;45.926;13.608;2023-04-29T03:58:05;12.20;90.60
52189;DHT22;38162;45.926;13.608;2023-04-29T04:00:30;12.10;90.60
52189;DHT22;38162;45.926;13.608;2023-04-29T04:02:59;12.20;90.90
52189;DHT22;38162;45.926;13.608;2023-04-29T04:05:25;12.20;90.80
52189;DHT22;38162;45.926;13.608;2023-04-29T04:07:51;12.20;91.00
52189;DHT22;38162;45.926;13.608;2023-04-29T04:10:17;12.20;90.90
52189;DHT22;38162;45.926;13.608;2023-04-29T04:12:43;12.20;90.80
52189;DHT22;38162;45.926;13.608;2023-04-29T04:15:10;12.10;90.70
52189;DHT22;38162;45.926;13.608;2023-04-29T04:17:35;12.10;90.80
52189;DHT22;38162;45.926;13.608;2023-04-29T04:20:01;12.10;90.70
52189;DHT22;38162;45.926;13.608;2023-04-29T04:22:27;12.10;90.90
52189;DHT22;38162;45.926;13.608;2023-04-29T04:24:56;12.10;90.90
52189;DHT22;38162;45.926;13.608;2023-04-29T04:27:22;12.10;91.30
52189;DHT22;38162;45.926;13.608;2023-04-29T04:29:47;12.00;91.70
52189;DHT22;38162;45.926;13.608;2023-04-29T04:32:17;12.00;91.90
52189;DHT22;38162;45.926;13.608;2023-04-29T04:34:43;12.00;91.90
52189;DHT22;38162;45.926;13.608;2023-04-29T04:37:09;11.90;92.10
52189;DHT22;38162;45.926;13.608;2023-04-29T04:39:34;12.00;92.50
52189;DHT22;38162;45.926;13.608;2023-04-29T04:42:00;12.00;92.40
52189;DHT22;38162;45.926;13.608;2023-04-29T04:44:28;12.00;92.50
52189;DHT22;38162;45.926;13.608;2023-04-29T04:46:54;12.00;92.60
52189;DHT22;38162;45.926;13.608;2023-04-29T04:49:20;12.00;92.50
52189;DHT22;38162;45.926;13.608;2023-04-29T04:51:45;12.00;92.40
52189;DHT22;38162;45.926;13.608;2023-04-29T04:54:11;12.10;92.40
52189;DHT22;38162;45.926;13.608;2023-04-29T04:56:37;12.10;92.50
52189;DHT22;38162;45.926;13.608;2023-04-29T04:59:03;12.10;92.30
52189;DHT22;38162;45.926;13.608;2023-04-29T05:01:29;12.20;92.50
52189;DHT22;38162;45.926;13.608;2023-04-29T05:03:55;12.20;92.20
52189;DHT22;38162;45.926;13.608;2023-04-29T05:06:21;12.10;92.00
52189;DHT22;38162;45.926;13.608;2023-04-29T05:08:47;12.20;92.60
52189;DHT22;38162;45.926;13.608;2023-04-29T05:11:20;12.20;92.80
52189;DHT22;38162;45.926;13.608;2023-04-29T05:13:46;12.20;92.40
52189;DHT22;38162;45.926;13.608;2023-04-29T05:16:12;12.20;92.20
52189;DHT22;38162;45.926;13.608;2023-04-29T05:18:38;12.20;92.00
52189;DHT22;38162;45.926;13.608;2023-04-29T05:21:04;12.20;91.80
52189;DHT22;38162;45.926;13.608;2023-04-29T05:23:30;12.30;91.90
52189;DHT22;38162;45.926;13.608;2023-04-29T05:25:56;12.30;92.30
52189;DHT22;38162;45.926;13.608;2023-04-29T05:28:22;12.30;91.70
52189;DHT22;38162;45.926;13.608;2023-04-29T05:30:50;12.30;91.90
52189;DHT22;38162;45.926;13.608;2023-04-29T05:33:16;12.30;91.90
52189;DHT22;38162;45.926;13.608;2023-04-29T05:35:42;12.40;91.60
52189;DHT22;38162;45.926;13.608;2023-04-29T05:38:08;12.40;91.70
52189;DHT22;38162;45.926;13.608;2023-04-29T05:40:33;12.40;91.70
52189;DHT22;38162;45.926;13.608;2023-04-29T05:42:59;12.40;92.00
52189;DHT22;38162;45.926;13.608;2023-04-29T05:45:25;12.50;92.10
52189;DHT22;38162;45.926;13.608;2023-04-29T05:47:51;12.40;92.30
52189;DHT22;38162;45.926;13.608;2023-04-29T05:50:16;12.40;92.20
52189;DHT22;38162;45.926;13.608;2023-04-29T05:52:42;12.50;92.30
52189;DHT22;38162;45.926;13.608;2023-04-29T05:55:08;12.50;92.30
52189;DHT22;38162;45.926;13.608;2023-04-29T05:57:35;12.50;92.40
52189;DHT22;38162;45.926;13.608;2023-04-29T06:00:01;12.60;92.40
52189;DHT22;38162;45.926;13.608;2023-04-29T06:02:28;12.60;92.20
52189;DHT22;38162;45.926;13.608;2023-04-29T06:04:54;12.60;92.30
52189;DHT22;38162;45.926;13.608;2023-04-29T06:07:20;12.60;92.20
52189;DHT22;38162;45.926;13.608;2023-04-29T06:09:46;12.70;92.20
52189;DHT22;38162;45.926;13.608;2023-04-29T06:12:11;12.70;92.30
52189;DHT22;38162;45.926;13.608;2023-04-29T06:14:37;12.80;92.50
52189;DHT22;38162;45.926;13.608;2023-04-29T06:17:03;12.80;92.20
52189;DHT22;38162;45.926;13.608;2023-04-29T06:19:29;12.80;92.40
52189;DHT22;38162;45.926;13.608;2023-04-29T06:21:56;12.90;91.70
52189;DHT22;38162;45.926;13.608;2023-04-29T06:24:23;13.00;91.50
52189;DHT22;38162;45.926;13.608;2023-04-29T06:26:48;13.00;91.60
52189;DHT22;38162;45.926;13.608;2023-04-29T06:29:15;13.00;91.90
52189;DHT22;38162;45.926;13.608;2023-04-29T06:31:41;13.00;91.80
52189;DHT22;38162;45.926;13.608;2023-04-29T06:34:06;13.10;91.80
52189;DHT22;38162;45.926;13.608;2023-04-29T06:36:32;13.10;91.60
52189;DHT22;38162;45.926;13.608;2023-04-29T06:38:58;13.10;91.70
52189;DHT22;38162;45.926;13.608;2023-04-29T06:41:23;13.10;91.70
52189;DHT22;38162;45.926;13.608;2023-04-29T06:43:50;13.10;91.70
52189;DHT22;38162;45.926;13.608;2023-04-29T06:46:15;13.20;91.60
52189;DHT22;38162;45.926;13.608;2023-04-29T06:48:41;13.20;91.50
52189;DHT22;38162;45.926;13.608;2023-04-29T06:51:07;13.20;91.50
52189;DHT22;38162;45.926;13.608;2023-04-29T06:53:33;13.30;91.40
52189;DHT22;38162;45.926;13.608;2023-04-29T06:55:58;13.30;91.10
52189;DHT22;38162;45.926;13.608;2023-04-29T06:58:24;13.30;91.20
52189;DHT22;38162;45.926;13.608;2023-04-29T07:00:50;13.30;91.20
52189;DHT22;38162;45.926;13.608;2023-04-29T07:03:17;13.40;91.20
52189;DHT22;38162;45.926;13.608;2023-04-29T07:05:43;13.40;91.20
52189;DHT22;38162;45.926;13.608;2023-04-29T07:08:13;13.40;91.30
52189;DHT22;38162;45.926;13.608;2023-04-29T07:10:39;13.50;91.30
52189;DHT22;38162;45.926;13.608;2023-04-29T07:13:06;13.50;91.30
52189;DHT22;38162;45.926;13.608;2023-04-29T07:15:35;13.50;91.30
52189;DHT22;38162;45.926;13.608;2023-04-29T07:18:05;13.60;91.40
52189;DHT22;38162;45.926;13.608;2023-04-29T07:20:31;13.70;91.20
52189;DHT22;38162;45.926;13.608;2023-04-29T07:22:57;13.70;90.80
52189;DHT22;38162;45.926;13.608;2023-04-29T07:25:25;13.70;90.90
52189;DHT22;38162;45.926;13.608;2023-04-29T07:27:50;13.80;90.90
52189;DHT22;38162;45.926;13.608;2023-04-29T07:30:16;13.80;90.70
52189;DHT22;38162;45.926;13.608;2023-04-29T07:32:42;13.80;90.90
52189;DHT22;38162;45.926;13.608;2023-04-29T07:35:08;13.90;91.30
52189;DHT22;38162;45.926;13.608;2023-04-29T07:37:34;13.80;91.20
52189;DHT22;38162;45.926;13.608;2023-04-29T07:39:59;13.90;91.40
52189;DHT22;38162;45.926;13.608;2023-04-29T07:42:25;13.90;91.40
52189;DHT22;38162;45.926;13.608;2023-04-29T07:44:51;13.90;91.20
52189;DHT22;38162;45.926;13.608;2023-04-29T07:47:17;13.90;91.80
52189;DHT22;38162;45.926;13.608;2023-04-29T07:49:43;14.00;91.80
52189;DHT22;38162;45.926;13.608;2023-04-29T07:52:08;14.00;91.60
52189;DHT22;38162;45.926;13.608;2023-04-29T07:54:37;14.00;91.40
52189;DHT22;38162;45.926;13.608;2023-04-29T07:57:04;14.10;91.40
52189;DHT22;38162;45.926;13.608;2023-04-29T07:59:30;14.10;91.50
52189;DHT22;38162;45.926;13.608;2023-04-29T08:01:56;14.10;91.80
52189;DHT22;38162;45.926;13.608;2023-04-29T08:04:22;14.10;91.80
52189;DHT22;38162;45.926;13.608;2023-04-29T08:06:48;14.20;91.70
52189;DHT22;38162;45.926;13.608;2023-04-29T08:09:15;14.20;91.60
52189;DHT22;38162;45.926;13.608;2023-04-29T08:11:41;14.30;92.20
52189;DHT22;38162;45.926;13.608;2023-04-29T08:14:07;14.30;91.60
52189;DHT22;38162;45.926;13.608;2023-04-29T08:16:33;14.40;91.20
52189;DHT22;38162;45.926;13.608;2023-04-29T08:18:59;14.40;90.90
52189;DHT22;38162;45.926;13.608;2023-04-29T08:21:25;14.50;90.80
52189;DHT22;38162;45.926;13.608;2023-04-29T08:23:52;14.60;90.70
52189;DHT22;38162;45.926;13.608;2023-04-29T08:26:18;14.60;90.50
52189;DHT22;38162;45.926;13.608;2023-04-29T08:28:43;14.70;90.20
52189;DHT22;38162;45.926;13.608;2023-04-29T08:31:16;14.70;90.30
52189;DHT22;38162;45.926;13.608;2023-04-29T08:33:42;14.80;90.80
52189;DHT22;38162;45.926;13.608;2023-04-29T08:36:08;14.80;90.70
52189;DHT22;38162;45.926;13.608;2023-04-29T08:38:34;14.80;90.80
52189;DHT22;38162;45.926;13.608;2023-04-29T08:41:00;14.80;91.10
52189;DHT22;38162;45.926;13.608;2023-04-29T08:43:26;14.90;91.60
52189;DHT22;38162;45.926;13.608;2023-04-29T08:45:52;15.00;91.60
52189;DHT22;38162;45.926;13.608;2023-04-29T08:48:18;15.00;91.20
52189;DHT22;38162;45.926;13.608;2023-04-29T08:50:44;15.10;91.10
52189;DHT22;38162;45.926;13.608;2023-04-29T08:53:11;15.10;90.90
52189;DHT22;38162;45.926;13.608;2023-04-29T08:55:45;15.20;90.90
52189;DHT22;38162;45.926;13.608;2023-04-29T08:58:12;15.20;91.00
52189;DHT22;38162;45.926;13.608;2023-04-29T09:00:42;15.30;91.00
52189;DHT22;38162;45.926;13.608;2023-04-29T09:05:44;15.40;90.40
52189;DHT22;38162;45.926;13.608;2023-04-29T09:08:12;15.40;90.20
52189;DHT22;38162;45.926;13.608;2023-04-29T09:10:41;15.50;90.20
52189;DHT22;38162;45.926;13.608;2023-04-29T09:13:07;15.60;90.00
52189;DHT22;38162;45.926;13.608;2023-04-29T09:15:36;15.60;89.50
52189;DHT22;38162;45.926;13.608;2023-04-29T09:18:02;15.70;89.20
52189;DHT22;38162;45.926;13.608;2023-04-29T09:20:29;15.70;89.30
52189;DHT22;38162;45.926;13.608;2023-04-29T09:22:58;15.80;88.40
52189;DHT22;38162;45.926;13.608;2023-04-29T09:25:25;15.80;87.80
52189;DHT22;38162;45.926;13.608;2023-04-29T09:27:52;16.00;88.80
52189;DHT22;38162;45.926;13.608;2023-04-29T09:30:18;16.10;88.40
52189;DHT22;38162;45.926;13.608;2023-04-29T09:32:44;16.30;87.00
52189;DHT22;38162;45.926;13.608;2023-04-29T09:35:22;16.50;86.70
52189;DHT22;38162;45.926;13.608;2023-04-29T09:38:12;16.70;85.80
52189;DHT22;38162;45.926;13.608;2023-04-29T09:40:39;16.90;83.60
52189;DHT22;38162;45.926;13.608;2023-04-29T09:43:11;17.00;83.30
52189;DHT22;38162;45.926;13.608;2023-04-29T09:45:43;17.20;79.30
52189;DHT22;38162;45.926;13.608;2023-04-29T09:48:11;17.30;78.40
52189;DHT22;38162;45.926;13.608;2023-04-29T09:50:38;17.50;77.20
52189;DHT22;38162;45.926;13.608;2023-04-29T09:53:05;17.50;78.50
52189;DHT22;38162;45.926;13.608;2023-04-29T09:58:32;17.80;76.40
52189;DHT22;38162;45.926;13.608;2023-04-29T10:01:02;17.90;73.70
52189;DHT22;38162;45.926;13.608;2023-04-29T10:03:33;18.00;74.30
52189;DHT22;38162;45.926;13.608;2023-04-29T10:06:00;18.10;73.70
52189;DHT22;38162;45.926;13.608;2023-04-29T10:08:28;18.10;75.60
52189;DHT22;38162;45.926;13.608;2023-04-29T10:10:56;18.20;74.70
52189;DHT22;38162;45.926;13.608;2023-04-29T10:13:24;18.30;74.10
52189;DHT22;38162;45.926;13.608;2023-04-29T10:18:53;18.50;74.20
52189;DHT22;38162;45.926;13.608;2023-04-29T10:21:26;18.60;75.70
52189;DHT22;38162;45.926;13.608;2023-04-29T10:23:53;18.60;72.80
52189;DHT22;38162;45.926;13.608;2023-04-29T10:26:21;18.80;72.10
52189;DHT22;38162;45.926;13.608;2023-04-29T10:28:50;18.80;71.30
52189;DHT22;38162;45.926;13.608;2023-04-29T10:31:17;18.90;72.00
52189;DHT22;38162;45.926;13.608;2023-04-29T10:33:44;19.00;71.80
52189;DHT22;38162;45.926;13.608;2023-04-29T10:36:11;19.20;71.10
52189;DHT22;38162;45.926;13.608;2023-04-29T10:38:45;19.20;68.90
52189;DHT22;38162;45.926;13.608;2023-04-29T10:41:20;19.40;69.00
52189;DHT22;38162;45.926;13.608;2023-04-29T10:43:52;19.40;70.10
52189;DHT22;38162;45.926;13.608;2023-04-29T10:46:20;19.60;69.70
52189;DHT22;38162;45.926;13.608;2023-04-29T10:48:47;19.60;68.10
52189;DHT22;38162;45.926;13.608;2023-04-29T10:59:11;20.00;67.90
52189;DHT22;38162;45.926;13.608;2023-04-29T11:01:53;20.10;66.40
52189;DHT22;38162;45.926;13.608;2023-04-29T11:04:20;20.20;65.50
52189;DHT22;38162;45.926;13.608;2023-04-29T11:06:54;20.20;62.80
52189;DHT22;38162;45.926;13.608;2023-04-29T11:17:06;20.50;62.70
52189;DHT22;38162;45.926;13.608;2023-04-29T11:19:50;20.60;63.40
52189;DHT22;38162;45.926;13.608;2023-04-29T11:24:58;20.70;61.30
52189;DHT22;38162;45.926;13.608;2023-04-29T11:27:38;20.80;62.30
52189;DHT22;38162;45.926;13.608;2023-04-29T11:30:05;20.90;61.20
52189;DHT22;38162;45.926;13.608;2023-04-29T11:32:37;20.90;61.70
52189;DHT22;38162;45.926;13.608;2023-04-29T11:35:14;21.00;61.40
52189;DHT22;38162;45.926;13.608;2023-04-29T11:37:42;21.00;62.10
52189;DHT22;38162;45.926;13.608;2023-04-29T11:40:09;21.00;60.00
52189;DHT22;38162;45.926;13.608;2023-04-29T11:42:40;21.10;60.40
52189;DHT22;38162;45.926;13.608;2023-04-29T11:45:07;21.10;61.10
52189;DHT22;38162;45.926;13.608;2023-04-29T11:47:33;21.20;59.00
52189;DHT22;38162;45.926;13.608;2023-04-29T11:50:03;21.20;58.70
52189;DHT22;38162;45.926;13.608;2023-04-29T11:52:30;21.20;58.50
52189;DHT22;38162;45.926;13.608;2023-04-29T11:54:57;21.20;58.40
52189;DHT22;38162;45.926;13.608;2023-04-29T11:57:24;21.30;58.50
52189;DHT22;38162;45.926;13.608;2023-04-29T11:59:50;21.40;58.10
52189;DHT22;38162;45.926;13.608;2023-04-29T12:02:16;21.50;58.40
52189;DHT22;38162;45.926;13.608;2023-04-29T12:04:48;21.60;57.50
52189;DHT22;38162;45.926;13.608;2023-04-29T12:07:17;21.60;57.30
52189;DHT22;38162;45.926;13.608;2023-04-29T12:09:43;21.60;56.00
52189;DHT22;38162;45.926;13.608;2023-04-29T12:12:10;21.50;56.50
52189;DHT22;38162;45.926;13.608;2023-04-29T12:14:36;21.50;57.10
52189;DHT22;38162;45.926;13.608;2023-04-29T12:17:03;21.60;56.50
52189;DHT22;38162;45.926;13.608;2023-04-29T12:19:29;21.70;56.20
52189;DHT22;38162;45.926;13.608;2023-04-29T12:21:58;21.70;55.80
52189;DHT22;38162;45.926;13.608;2023-04-29T12:24:23;21.80;56.50
52189;DHT22;38162;45.926;13.608;2023-04-29T12:26:49;21.90;59.40
52189;DHT22;38162;45.926;13.608;2023-04-29T12:29:15;22.10;56.70
52189;DHT22;38162;45.926;13.608;2023-04-29T12:31:41;22.10;54.70
52189;DHT22;38162;45.926;13.608;2023-04-29T12:34:07;22.20;54.60
52189;DHT22;38162;45.926;13.608;2023-04-29T12:36:33;22.10;54.40
52189;DHT22;38162;45.926;13.608;2023-04-29T12:38:59;22.10;54.60
52189;DHT22;38162;45.926;13.608;2023-04-29T12:41:40;22.10;55.10
52189;DHT22;38162;45.926;13.608;2023-04-29T12:44:07;22.20;54.80
52189;DHT22;38162;45.926;13.608;2023-04-29T12:46:39;22.20;54.80
52189;DHT22;38162;45.926;13.608;2023-04-29T12:49:06;22.30;54.70
52189;DHT22;38162;45.926;13.608;2023-04-29T12:51:35;22.30;53.30
52189;DHT22;38162;45.926;13.608;2023-04-29T12:54:02;22.20;54.00
52189;DHT22;38162;45.926;13.608;2023-04-29T12:56:29;22.20;54.70
52189;DHT22;38162;45.926;13.608;2023-04-29T12:58:55;22.20;53.50
52189;DHT22;38162;45.926;13.608;2023-04-29T13:01:21;22.20;52.60
52189;DHT22;38162;45.926;13.608;2023-04-29T13:03:47;22.20;54.20
52189;DHT22;38162;45.926;13.608;2023-04-29T13:06:14;22.20;54.60
52189;DHT22;38162;45.926;13.608;2023-04-29T13:08:41;22.20;53.90
52189;DHT22;38162;45.926;13.608;2023-04-29T13:11:07;22.20;52.20
52189;DHT22;38162;45.926;13.608;2023-04-29T13:13:33;22.10;53.20
52189;DHT22;38162;45.926;13.608;2023-04-29T13:15:58;22.10;53.10
52189;DHT22;38162;45.926;13.608;2023-04-29T13:18:24;22.10;54.00
52189;DHT22;38162;45.926;13.608;2023-04-29T13:20:50;22.20;52.90
52189;DHT22;38162;45.926;13.608;2023-04-29T13:23:16;22.20;52.80
52189;DHT22;38162;45.926;13.608;2023-04-29T13:25:42;22.20;53.60
52189;DHT22;38162;45.926;13.608;2023-04-29T13:28:10;22.30;54.20
52189;DHT22;38162;45.926;13.608;2023-04-29T13:30:36;22.30;52.40
52189;DHT22;38162;45.926;13.608;2023-04-29T13:33:02;22.30;53.80
52189;DHT22;38162;45.926;13.608;2023-04-29T13:35:27;22.30;53.00
52189;DHT22;38162;45.926;13.608;2023-04-29T13:37:53;22.20;52.70
52189;DHT22;38162;45.926;13.608;2023-04-29T13:40:19;22.10;53.30
52189;DHT22;38162;45.926;13.608;2023-04-29T13:42:45;22.00;52.60
52189;DHT22;38162;45.926;13.608;2023-04-29T13:45:10;22.10;52.50
52189;DHT22;38162;45.926;13.608;2023-04-29T13:47:36;22.10;51.90
52189;DHT22;38162;45.926;13.608;2023-04-29T13:50:02;22.00;52.90
52189;DHT22;38162;45.926;13.608;2023-04-29T13:52:27;21.90;53.30
52189;DHT22;38162;45.926;13.608;2023-04-29T13:54:54;21.90;53.90
52189;DHT22;38162;45.926;13.608;2023-04-29T13:57:20;22.00;53.00
52189;DHT22;38162;45.926;13.608;2023-04-29T13:59:46;22.00;52.60
52189;DHT22;38162;45.926;13.608;2023-04-29T14:02:12;22.00;53.00
52189;DHT22;38162;45.926;13.608;2023-04-29T14:04:38;22.00;52.10
52189;DHT22;38162;45.926;13.608;2023-04-29T14:07:04;21.90;53.50
52189;DHT22;38162;45.926;13.608;2023-04-29T14:09:30;21.90;54.30
52189;DHT22;38162;45.926;13.608;2023-04-29T14:11:55;21.80;53.40
52189;DHT22;38162;45.926;13.608;2023-04-29T14:14:22;21.80;53.80
52189;DHT22;38162;45.926;13.608;2023-04-29T14:16:47;21.90;54.80
52189;DHT22;38162;45.926;13.608;2023-04-29T14:19:13;21.90;54.60
52189;DHT22;38162;45.926;13.608;2023-04-29T14:21:39;22.00;54.80
52189;DHT22;38162;45.926;13.608;2023-04-29T14:24:04;22.00;55.10
52189;DHT22;38162;45.926;13.608;2023-04-29T14:26:30;22.10;55.00
52189;DHT22;38162;45.926;13.608;2023-04-29T14:28:57;22.10;55.10
52189;DHT22;38162;45.926;13.608;2023-04-29T14:31:29;22.10;55.20
52189;DHT22;38162;45.926;13.608;2023-04-29T14:33:57;22.10;55.50
52189;DHT22;38162;45.926;13.608;2023-04-29T14:36:24;22.00;55.70
52189;DHT22;38162;45.926;13.608;2023-04-29T14:38:51;22.00;56.60
52189;DHT22;38162;45.926;13.608;2023-04-29T14:41:17;21.90;55.60
52189;DHT22;38162;45.926;13.608;2023-04-29T14:43:42;21.90;55.50
52189;DHT22;38162;45.926;13.608;2023-04-29T14:46:08;21.90;56.00
52189;DHT22;38162;45.926;13.608;2023-04-29T14:48:34;21.90;56.00
52189;DHT22;38162;45.926;13.608;2023-04-29T14:51:00;21.90;56.30
52189;DHT22;38162;45.926;13.608;2023-04-29T14:53:26;22.00;56.90
52189;DHT22;38162;45.926;13.608;2023-04-29T14:55:52;22.00;56.70
52189;DHT22;38162;45.926;13.608;2023-04-29T14:58:17;22.00;57.10
52189;DHT22;38162;45.926;13.608;2023-04-29T15:00:43;22.00;57.10
52189;DHT22;38162;45.926;13.608;2023-04-29T15:03:09;21.90;57.10
52189;DHT22;38162;45.926;13.608;2023-04-29T15:05:35;21.90;56.90
52189;DHT22;38162;45.926;13.608;2023-04-29T15:08:00;21.90;57.50
52189;DHT22;38162;45.926;13.608;2023-04-29T15:10:27;21.90;58.30
52189;DHT22;38162;45.926;13.608;2023-04-29T15:12:53;21.90;59.20
52189;DHT22;38162;45.926;13.608;2023-04-29T15:15:19;22.00;58.80
52189;DHT22;38162;45.926;13.608;2023-04-29T15:17:46;22.00;59.60
52189;DHT22;38162;45.926;13.608;2023-04-29T15:20:11;22.00;58.70
52189;DHT22;38162;45.926;13.608;2023-04-29T15:22:38;22.10;59.00
52189;DHT22;38162;45.926;13.608;2023-04-29T15:25:05;22.00;59.60
52189;DHT22;38162;45.926;13.608;2023-04-29T15:27:32;22.00;60.80
52189;DHT22;38162;45.926;13.608;2023-04-29T15:29:58;21.90;61.00
52189;DHT22;38162;45.926;13.608;2023-04-29T15:32:24;21.90;60.80
52189;DHT22;38162;45.926;13.608;2023-04-29T15:34:56;21.80;61.00
52189;DHT22;38162;45.926;13.608;2023-04-29T15:37:21;21.70;61.50
52189;DHT22;38162;45.926;13.608;2023-04-29T15:39:47;21.70;61.60
52189;DHT22;38162;45.926;13.608;2023-04-29T15:42:13;21.60;62.70
52189;DHT22;38162;45.926;13.608;2023-04-29T15:44:39;21.60;62.00
52189;DHT22;38162;45.926;13.608;2023-04-29T15:47:04;21.50;61.40
52189;DHT22;38162;45.926;13.608;2023-04-29T15:49:30;21.50;60.10
52189;DHT22;38162;45.926;13.608;2023-04-29T15:51:56;21.40;60.90
52189;DHT22;38162;45.926;13.608;2023-04-29T15:54:22;21.30;60.70